Time;durP1;ratioP1;P1;durP2;ratioP2;P2;SDS_P1;SDS_P2;PMS_P1;PMS_P2;Temp;Humidity;BMP_temperature;BMP_pressure;BME280_temperature;BME280_humidity;BME280_pressure;Samples;Min_cycle;Max_cycle;Signal;HPM_P1;HPM_P2
2023/01/05 00:00:54;;;;;;;9.00;7.30;;;;;;;22.20;44.63;95735.53;5021753;28;20026;-75
2023/01/05 00:03:19;;;;;;;10.57;7.80;;;;;;;22.08;44.94;95717.63;5023707;28;20046;-77
2023/01/05 00:05:45;;;;;;;9.32;7.35;;;;;;;22.07;44.67;95721.56;5020924;28;20598;-78
2023/01/05 00:08:11;;;;;;;9.73;7.60;;;;;;;21.66;44.45;95669.84;5015101;28;20426;-78
2023/01/05 00:24:22;;;;;;;8.93;7.47;;;;;;;22.04;45.08;95711.66;5035163;28;20064;-76
2023/01/05 00:26:47;;;;;;;10.00;7.90;;;;;;;22.03;45.08;95714.88;5026530;28;20034;-75
2023/01/05 00:29:13;;;;;;;9.70;7.10;;;;;;;22.10;44.95;95715.16;5018465;28;20048;-75
2023/01/05 00:31:38;;;;;;;9.32;7.25;;;;;;;22.06;45.09;95701.06;5031371;28;20420;-78
2023/01/05 00:34:03;;;;;;;8.77;6.82;;;;;;;21.63;44.75;95643.63;5023515;28;20528;-75
2023/01/05 00:36:29;;;;;;;9.48;7.20;;;;;;;22.08;44.99;95712.19;5031315;28;20453;-76
2023/01/05 00:38:54;;;;;;;8.57;7.32;;;;;;;22.08;44.81;95711.47;5025250;28;20038;-77
2023/01/05 00:41:20;;;;;;;9.80;7.15;;;;;;;22.02;45.11;95692.38;5012872;28;20052;-76
2023/01/05 00:43:45;;;;;;;10.30;7.70;;;;;;;22.04;45.27;95692.63;5016761;28;20033;-75
2023/01/05 00:46:11;;;;;;;10.02;7.50;;;;;;;21.75;44.88;95656.06;5032266;28;20025;-76
2023/01/05 00:48:36;;;;;;;10.45;7.50;;;;;;;22.08;44.93;95712.19;5029086;28;20042;-76
2023/01/05 00:51:01;;;;;;;8.90;7.03;;;;;;;22.07;44.62;95704.53;5022896;28;20037;-75
2023/01/05 00:53:27;;;;;;;8.98;6.72;;;;;;;22.00;44.87;95697.56;5015945;28;20042;-76
2023/01/05 00:55:58;;;;;;;10.18;7.45;;;;;;;21.96;44.84;95688.13;5020508;28;20529;-75
2023/01/05 00:58:23;;;;;;;8.88;6.75;;;;;;;21.94;45.09;95685.13;5031395;28;20029;-75
2023/01/05 01:00:49;;;;;;;8.50;6.88;;;;;;;21.96;44.94;95697.03;5013516;28;20048;-76
2023/01/05 01:03:14;;;;;;;9.15;7.80;;;;;;;21.87;44.74;95679.38;5028121;28;20045;-75
2023/01/05 01:05:40;;;;;;;8.90;7.10;;;;;;;21.97;44.97;95701.25;5018456;28;20037;-75
2023/01/05 01:08:05;;;;;;;10.93;7.22;;;;;;;22.03;45.09;95715.63;5010706;28;20049;-77
2023/01/05 01:10:31;;;;;;;9.60;7.13;;;;;;;21.98;44.84;95702.72;5011516;28;20137;-75
2023/01/05 01:12:56;;;;;;;9.25;7.38;;;;;;;21.92;45.09;95692.31;5021362;28;20026;-74
2023/01/05 01:15:22;;;;;;;8.38;6.93;;;;;;;22.01;45.11;95701.75;5015084;28;20041;-76
2023/01/05 01:17:47;;;;;;;9.50;7.38;;;;;;;21.85;44.87;95670.97;5029563;28;20088;-75
2023/01/05 01:20:12;;;;;;;8.95;6.93;;;;;;;21.96;45.09;95699.75;5015568;28;20030;-75
2023/01/05 01:22:38;;;;;;;8.90;6.78;;;;;;;21.85;44.88;95670.97;5016508;28;20424;-77
2023/01/05 01:25:04;;;;;;;9.60;7.35;;;;;;;21.92;44.76;95686.88;5024737;28;20028;-76
2023/01/05 01:27:30;;;;;;;8.70;6.95;;;;;;;21.87;45.04;95663.84;5007160;28;20105;-75
2023/01/05 01:29:55;;;;;;;9.13;7.05;;;;;;;21.90;45.23;95662.09;5023805;28;20033;-74
2023/01/05 01:32:23;;;;;;;9.85;7.07;;;;;;;21.96;45.07;95680.72;5042948;28;20479;-76
2023/01/05 01:34:48;;;;;;;9.05;7.20;;;;;;;21.97;44.88;95674.06;5026953;28;20025;-76
2023/01/05 01:37:14;;;;;;;9.05;7.00;;;;;;;21.98;45.01;95664.66;5028319;28;20130;-75
2023/01/05 01:39:40;;;;;;;8.85;7.10;;;;;;;21.77;44.62;95642.75;5014222;28;20440;-73
2023/01/05 01:42:05;;;;;;;9.73;7.20;;;;;;;21.97;45.01;95652.28;5019692;28;20034;-75
2023/01/05 01:45:22;;;;;;;8.25;6.78;;;;;;;21.43;44.96;95570.31;5006847;28;20038;-75
2023/01/05 01:47:50;;;;;;;8.98;6.90;;;;;;;21.55;44.89;95585.50;4989661;28;20061;-77
2023/01/05 01:50:24;;;;;;;8.05;7.07;;;;;;;21.96;44.99;95639.91;5007368;28;20033;-76
2023/01/05 01:52:50;;;;;;;8.10;6.80;;;;;;;21.94;45.11;95647.81;5012387;28;20105;-76
2023/01/05 01:55:16;;;;;;;9.30;7.00;;;;;;;21.77;44.87;95615.56;5035458;28;20112;-75
2023/01/05 01:57:42;;;;;;;9.10;6.75;;;;;;;21.94;45.09;95636.94;5027045;28;20504;-75
2023/01/05 02:00:08;;;;;;;8.90;7.10;;;;;;;21.93;45.33;95627.28;5016072;28;20504;-76
2023/01/05 02:02:34;;;;;;;9.63;7.28;;;;;;;21.94;45.06;95626.06;5025946;28;20038;-75
2023/01/05 02:05:02;;;;;;;8.27;6.70;;;;;;;21.92;45.03;95621.59;5027076;28;20041;-76
2023/01/05 02:07:29;;;;;;;9.35;7.07;;;;;;;21.92;44.83;95617.63;5013084;28;20124;-76
2023/01/05 02:09:55;;;;;;;9.40;6.90;;;;;;;21.81;45.02;95599.75;5026738;28;20045;-78
2023/01/05 02:12:36;;;;;;;9.50;6.93;;;;;;;21.66;45.14;95577.44;5012657;28;20037;-75
2023/01/05 02:15:31;;;;;;;9.02;7.18;;;;;;;21.92;44.93;95617.63;5025990;28;20044;-78
2023/01/05 02:18:13;;;;;;;8.98;6.88;;;;;;;21.92;44.93;95602.56;5027084;28;20045;-77
2023/01/05 02:21:00;;;;;;;10.77;7.15;;;;;;;21.92;45.27;95597.13;5034753;28;20045;-75
2023/01/05 02:23:28;;;;;;;8.30;6.90;;;;;;;21.92;45.14;95599.84;5042620;28;20555;-77
2023/01/05 02:25:59;;;;;;;9.10;6.72;;;;;;;21.90;45.28;95605.78;5015921;28;20049;-75
2023/01/05 02:28:46;;;;;;;7.97;6.30;;;;;;;21.90;45.11;95602.28;5021432;28;20441;-75
2023/01/05 02:31:17;;;;;;;8.52;6.82;;;;;;;21.32;44.91;95513.19;5020732;28;20132;-76
2023/01/05 02:34:08;;;;;;;7.93;6.68;;;;;;;21.89;45.10;95600.81;5032029;28;20041;-76
2023/01/05 02:36:35;;;;;;;9.35;7.38;;;;;;;21.77;44.94;95582.94;5022419;28;20052;-76
2023/01/05 02:39:05;;;;;;;8.40;6.32;;;;;;;21.90;45.06;95607.72;5042492;28;20030;-76
2023/01/05 02:41:36;;;;;;;9.30;7.07;;;;;;;21.89;44.98;95611.69;5042475;28;20188;-77
2023/01/05 02:44:02;;;;;;;8.57;6.63;;;;;;;21.80;44.94;95593.59;5015797;28;20037;-76
2023/01/05 02:46:28;;;;;;;8.82;7.15;;;;;;;21.45;45.02;95540.72;5035472;28;20018;-76
2023/01/05 02:48:54;;;;;;;8.60;7.07;;;;;;;21.87;45.01;95597.81;5007558;28;20033;-76
2023/01/05 02:51:22;;;;;;;9.27;6.93;;;;;;;21.81;44.96;95583.44;5010940;28;20094;-76
2023/01/05 02:53:54;;;;;;;8.80;6.97;;;;;;;21.41;44.91;95523.88;5025523;28;20049;-73
2023/01/05 02:56:25;;;;;;;8.65;6.95;;;;;;;21.76;45.05;95576.00;5025694;28;20041;-76
2023/01/05 02:59:31;;;;;;;9.02;7.20;;;;;;;21.75;44.91;95563.63;5010966;28;20483;-76
2023/01/05 03:02:21;;;;;;;8.45;6.93;;;;;;;21.85;44.84;95573.09;4995436;28;20038;-76
2023/01/05 03:04:50;;;;;;;8.38;6.90;;;;;;;21.75;44.82;95563.63;5017395;28;20049;-76
2023/01/05 03:07:17;;;;;;;9.32;7.25;;;;;;;21.73;45.13;95555.22;5009329;28;20026;-76
2023/01/05 03:09:43;;;;;;;8.93;6.85;;;;;;;21.67;44.95;95540.88;5014006;28;20042;-75
2023/01/05 03:14:58;;;;;;;8.88;6.90;;;;;;;21.84;45.24;95566.16;5020748;28;20052;-76
2023/01/05 03:17:32;;;;;;;8.40;6.60;;;;;;;21.83;44.97;95548.38;5033258;28;20050;-74
2023/01/05 03:19:57;;;;;;;8.23;6.57;;;;;;;21.81;44.96;95545.38;5018197;28;20444;-76
2023/01/05 03:36:38;;;;;;;;;;;;;;;21.79;44.77;95520.69;5038134;28;20068;-76
2023/01/05 03:39:03;;;;;;;8.05;6.47;;;;;;;21.75;44.97;95517.44;5031903;28;20528;-76
2023/01/05 03:41:28;;;;;;;8.27;7.20;;;;;;;21.69;45.04;95505.81;5012528;28;20041;-76
2023/01/05 03:43:54;;;;;;;8.73;6.70;;;;;;;21.78;45.54;95516.47;5027762;28;20496;-76
2023/01/05 03:46:20;;;;;;;9.02;6.63;;;;;;;21.74;44.86;95518.69;4990519;28;20088;-76
2023/01/05 03:48:46;;;;;;;8.23;6.88;;;;;;;21.76;44.95;95527.09;5031706;28;20103;-77
2023/01/05 03:51:12;;;;;;;9.50;7.53;;;;;;;21.79;44.65;95523.38;5038142;28;20034;-76
2023/01/05 03:53:37;;;;;;;8.70;6.53;;;;;;;21.60;44.96;95503.28;5020750;28;20524;-75
2023/01/05 03:56:03;;;;;;;8.35;6.50;;;;;;;21.72;45.12;95521.13;5018198;28;20127;-73
2023/01/05 03:58:28;;;;;;;7.95;6.30;;;;;;;21.70;44.96;95518.16;5005354;28;20021;-76
2023/01/05 04:00:53;;;;;;;7.75;6.35;;;;;;;21.70;45.45;95518.16;5021840;28;20034;-76
2023/01/05 04:03:19;;;;;;;7.88;6.28;;;;;;;21.72;44.87;95518.41;5040373;28;20107;-76
2023/01/05 04:05:44;;;;;;;7.65;6.32;;;;;;;21.73;45.02;95517.19;5026151;28;20247;-75
2023/01/05 04:08:10;;;;;;;7.75;6.47;;;;;;;21.42;44.93;95468.31;5021205;28;20050;-77
2023/01/05 04:10:35;;;;;;;8.18;6.70;;;;;;;21.69;44.89;95505.81;5025294;28;20079;-75
2023/01/05 04:13:01;;;;;;;7.68;6.13;;;;;;;21.57;44.91;95483.25;5041830;28;20108;-75
2023/01/05 04:15:26;;;;;;;8.35;6.45;;;;;;;21.74;45.13;95513.25;5027880;28;20044;-76
2023/01/05 04:17:51;;;;;;;9.18;6.60;;;;;;;21.11;44.99;95419.47;5025118;28;20043;-77
2023/01/05 04:20:17;;;;;;;7.90;6.57;;;;;;;21.73;45.07;95506.31;5013193;28;20548;-76
2023/01/05 04:22:42;;;;;;;8.43;6.65;;;;;;;21.52;45.06;95475.06;5038101;28;20029;-75
2023/01/05 04:25:08;;;;;;;8.38;6.65;;;;;;;21.74;44.89;95502.38;5027274;28;20029;-75
2023/01/05 04:27:33;;;;;;;8.52;6.38;;;;;;;21.69;45.24;95494.94;5012749;28;20070;-75
2023/01/05 04:29:59;;;;;;;8.07;6.50;;;;;;;21.40;44.66;95451.75;5005853;28;20031;-75
2023/01/05 04:32:24;;;;;;;8.02;6.05;;;;;;;21.47;45.07;95451.31;5009912;28;20049;-76
2023/01/05 04:34:50;;;;;;;7.82;6.60;;;;;;;21.71;44.89;95503.34;5018865;28;20129;-76
2023/01/05 04:37:15;;;;;;;7.28;6.15;;;;;;;21.63;45.44;95499.59;5025137;28;20030;-76
2023/01/05 04:39:41;;;;;;;7.88;6.43;;;;;;;21.67;45.03;95497.38;5014554;28;20659;-75
2023/01/05 04:42:06;;;;;;;7.63;6.22;;;;;;;21.69;44.99;95494.94;5005043;28;20041;-76
2023/01/05 04:44:31;;;;;;;8.15;6.50;;;;;;;21.40;45.00;95457.19;5022531;28;20508;-75
2023/01/05 04:46:57;;;;;;;8.07;6.65;;;;;;;21.69;45.15;95503.09;5026972;28;20141;-75
2023/01/05 04:49:22;;;;;;;9.05;6.70;;;;;;;21.69;45.09;95494.94;5021005;28;20034;-76
2023/01/05 04:51:48;;;;;;;9.45;6.65;;;;;;;21.58;44.77;95484.75;5007790;28;20543;-76
2023/01/05 04:54:13;;;;;;;8.40;6.57;;;;;;;21.66;45.15;95512.94;5022214;28;20041;-75
2023/01/05 04:56:38;;;;;;;8.32;6.55;;;;;;;20.63;44.83;95346.56;5014396;28;20092;-75
2023/01/05 04:59:04;;;;;;;8.70;6.85;;;;;;;21.64;45.15;95514.66;5010591;28;20057;-76
2023/01/05 05:01:29;;;;;;;8.50;6.57;;;;;;;21.59;44.96;95512.66;5034184;28;20029;-76
2023/01/05 05:03:55;;;;;;;8.05;6.25;;;;;;;21.64;44.88;95520.09;5023854;28;20463;-76
2023/01/05 05:06:20;;;;;;;8.60;6.47;;;;;;;21.66;45.00;95517.66;5010003;28;20049;-76
2023/01/05 05:08:46;;;;;;;7.68;6.53;;;;;;;21.55;44.98;95509.41;5023027;28;20118;-75
2023/01/05 05:11:11;;;;;;;8.38;6.07;;;;;;;21.43;44.93;95495.00;5019223;28;20041;-75
2023/01/05 05:13:36;;;;;;;8.50;6.38;;;;;;;21.50;45.12;95504.69;5041146;28;20022;-75
2023/01/05 05:16:02;;;;;;;8.82;7.07;;;;;;;21.60;45.12;95525.75;5015679;28;20018;-75
2023/01/05 05:18:27;;;;;;;7.97;6.40;;;;;;;21.50;45.00;95507.41;5023922;28;20339;-76
2023/01/05 05:20:53;;;;;;;8.57;6.63;;;;;;;21.59;45.08;95524.25;5020554;28;20091;-76
2023/01/05 05:23:18;;;;;;;8.80;6.30;;;;;;;21.61;44.86;95521.06;5013777;28;20120;-77
2023/01/05 05:25:44;;;;;;;8.85;6.85;;;;;;;21.51;45.17;95517.06;5021293;28;20021;-73
2023/01/05 05:28:09;;;;;;;7.78;6.43;;;;;;;21.59;45.01;95518.09;5022686;28;20021;-77
2023/01/05 05:30:36;;;;;;;7.95;6.30;;;;;;;21.62;45.20;95525.28;5029308;28;20065;-75
2023/01/05 05:33:02;;;;;;;7.93;6.28;;;;;;;21.74;44.48;95491.50;5038159;28;20030;-78
2023/01/05 05:35:27;;;;;;;7.20;6.20;;;;;;;22.25;44.20;95525.38;5022181;28;20551;-75
2023/01/05 05:37:52;;;;;;;8.82;6.57;;;;;;;22.28;43.51;95491.00;5027618;28;20527;-75
2023/01/05 05:40:18;;;;;;;7.45;5.97;;;;;;;22.53;43.39;95502.44;5025373;28;20025;-76
2023/01/05 05:42:43;;;;;;;7.60;6.10;;;;;;;22.59;43.09;95499.75;5014974;28;20041;-75
2023/01/05 05:45:09;;;;;;;7.70;6.15;;;;;;;22.31;43.14;95458.09;5008756;28;20552;-75
2023/01/05 05:47:35;;;;;;;7.47;6.05;;;;;;;22.49;43.06;95471.25;5027825;28;20034;-76
2023/01/05 05:50:00;;;;;;;6.93;5.80;;;;;;;22.70;42.91;95472.53;5014948;28;20045;-77
2023/01/05 05:52:25;;;;;;;6.53;5.65;;;;;;;22.46;43.10;95431.44;5026753;28;20030;-75
2023/01/05 05:54:51;;;;;;;7.18;5.72;;;;;;;22.79;43.10;95478.47;5009947;28;20750;-74
2023/01/05 05:57:16;;;;;;;7.03;5.63;;;;;;;22.80;43.18;95476.50;5031985;28;20551;-75
2023/01/05 05:59:42;;;;;;;7.78;6.28;;;;;;;22.88;42.88;95473.56;5021256;28;20038;-74
2023/01/05 06:02:07;;;;;;;7.47;5.80;;;;;;;22.89;42.50;95452.50;5033070;28;20037;-78
2023/01/05 06:04:33;;;;;;;7.45;6.15;;;;;;;22.55;42.38;95393.09;5038579;28;20033;-77
2023/01/05 06:06:58;;;;;;;7.07;5.85;;;;;;;23.18;42.47;95447.28;5021692;28;20542;-77
2023/01/05 06:09:23;;;;;;;7.07;6.00;;;;;;;23.19;42.30;95450.78;5013356;28;20452;-77
2023/01/05 06:11:49;;;;;;;7.60;5.80;;;;;;;23.24;42.18;95478.00;5035254;28;20053;-75
2023/01/05 06:14:14;;;;;;;7.85;6.22;;;;;;;23.15;42.25;95425.75;5017370;28;20068;-74
2023/01/05 06:16:40;;;;;;;8.52;6.43;;;;;;;23.35;42.07;95444.53;5008906;28;20092;-74
2023/01/05 06:19:06;;;;;;;7.43;5.97;;;;;;;23.53;42.29;95455.69;5020531;28;20064;-74
2023/01/05 06:21:31;;;;;;;8.48;5.82;;;;;;;23.56;41.38;95454.69;5022366;28;20073;-75
2023/01/05 06:23:57;;;;;;;7.60;5.82;;;;;;;23.78;41.75;95446.44;5017074;28;20061;-72
2023/01/05 06:26:22;;;;;;;7.35;5.43;;;;;;;23.83;41.20;95451.16;5020296;28;20049;-75
2023/01/05 06:28:48;;;;;;;7.30;5.93;;;;;;;23.48;41.69;95393.72;5024886;28;20034;-75
2023/01/05 06:31:13;;;;;;;7.03;5.55;;;;;;;23.76;41.58;95430.59;5022861;28;20426;-74
2023/01/05 06:33:39;;;;;;;6.47;5.75;;;;;;;23.99;41.65;95456.53;5007803;28;20100;-74
2023/01/05 06:36:04;;;;;;;7.70;5.68;;;;;;;24.07;41.38;95450.06;5022332;28;20037;-79
2023/01/05 06:38:30;;;;;;;6.45;5.22;;;;;;;24.18;41.06;95454.72;5022768;28;20061;-73
2023/01/05 06:40:56;;;;;;;6.25;4.75;;;;;;;24.22;40.75;95430.63;5009229;28;20045;-74
2023/01/05 06:43:23;;;;;;;7.57;5.63;;;;;;;24.19;41.23;95446.03;5013416;28;20426;-75
2023/01/05 06:45:48;;;;;;;7.07;5.72;;;;;;;24.00;40.88;95406.91;5026581;28;20444;-74
2023/01/05 06:48:14;;;;;;;6.43;5.47;;;;;;;24.11;41.37;95436.91;5012526;28;20096;-74
2023/01/05 06:50:39;;;;;;;6.88;5.38;;;;;;;23.85;40.93;95383.94;5009903;28;20045;-75
2023/01/05 06:53:05;;;;;;;8.35;5.65;;;;;;;24.20;41.26;95442.06;5021044;28;20045;-74
2023/01/05 06:55:30;;;;;;;8.07;5.55;;;;;;;24.17;40.90;95429.41;5006641;28;20032;-73
2023/01/05 06:57:56;;;;;;;6.18;5.10;;;;;;;24.37;41.19;95448.19;5009841;28;20024;-75
2023/01/05 07:00:22;;;;;;;7.13;5.13;;;;;;;23.72;40.90;95342.09;5006703;28;20037;-74
2023/01/05 07:02:47;;;;;;;6.60;5.32;;;;;;;24.36;41.03;95422.13;5022801;28;20048;-73
2023/01/05 07:05:13;;;;;;;6.72;5.25;;;;;;;24.78;39.96;95425.06;5015932;28;20547;-76
2023/01/05 07:07:38;;;;;;;6.20;5.20;;;;;;;25.00;39.88;95425.66;5025899;28;20051;-75
2023/01/05 07:10:04;;;;;;;6.70;4.80;;;;;;;24.51;39.90;95373.38;5022419;28;20736;-75
2023/01/05 07:12:30;;;;;;;7.60;6.05;;;;;;;24.94;40.00;95444.06;5014171;28;20052;-73
2023/01/05 07:14:55;;;;;;;6.85;5.47;;;;;;;24.98;39.47;95450.00;5017289;28;20030;-76
2023/01/05 07:17:21;;;;;;;7.85;5.43;;;;;;;24.98;40.02;95447.25;5010899;28;20041;-73
2023/01/05 07:19:46;;;;;;;7.25;5.38;;;;;;;24.78;39.81;95407.94;5015199;28;20048;-78
2023/01/05 07:22:11;;;;;;;6.85;5.25;;;;;;;25.10;39.79;95440.47;5021867;28;20033;-76
2023/01/05 07:24:37;;;;;;;5.95;5.35;;;;;;;24.60;39.59;95370.34;5017205;28;20037;-78
2023/01/05 07:27:02;;;;;;;7.30;5.35;;;;;;;24.89;39.81;95409.34;5011777;28;20073;-75
2023/01/05 07:29:28;;;;;;;7.35;5.38;;;;;;;25.08;39.69;95421.13;5012032;28;20038;-77
2023/01/05 07:31:53;;;;;;;6.35;5.20;;;;;;;25.27;39.35;95438.34;5013233;28;20065;-77
2023/01/05 07:34:19;;;;;;;6.78;5.35;;;;;;;25.53;38.79;95430.34;5019911;28;20069;-77
2023/01/05 07:36:45;;;;;;;7.50;6.05;;;;;;;25.58;38.60;95429.59;5009964;28;20037;-76
2023/01/05 07:39:10;;;;;;;5.88;4.80;;;;;;;25.67;38.70;95426.53;5006914;28;20201;-73
2023/01/05 07:41:36;;;;;;;6.20;4.90;;;;;;;25.69;38.70;95418.53;5007689;28;20038;-73
2023/01/05 07:44:01;;;;;;;7.00;5.28;;;;;;;25.84;38.23;95414.88;5018287;28;20107;-75
2023/01/05 07:46:27;;;;;;;6.70;5.57;;;;;;;25.80;38.26;95413.69;5010576;28;20673;-76
2023/01/05 07:48:52;;;;;;;6.45;4.93;;;;;;;25.68;38.51;95404.13;5019372;28;20078;-83
2023/01/05 07:51:18;;;;;;;6.80;5.10;;;;;;;25.72;38.70;95412.03;5020315;28;20041;-76
2023/01/05 07:53:43;;;;;;;6.32;5.30;;;;;;;25.70;38.40;95403.63;5016275;28;20420;-76
2023/01/05 07:56:09;;;;;;;6.32;5.20;;;;;;;25.57;38.55;95384.31;5031379;28;20041;-81
2023/01/05 07:58:34;;;;;;;6.93;5.45;;;;;;;25.70;38.65;95417.28;5018613;28;20099;-78
2023/01/05 08:01:04;;;;;;;6.30;5.18;;;;;;;25.55;38.43;95403.25;5034711;28;20025;-80
2023/01/05 08:03:29;;;;;;;6.88;5.30;;;;;;;25.60;38.23;95405.19;5039139;28;20150;-78
2023/01/05 08:05:54;;;;;;;7.25;5.90;;;;;;;25.47;38.36;95391.38;5018810;28;20037;-78
2023/01/05 08:08:20;;;;;;;6.95;5.38;;;;;;;25.46;38.48;95398.13;5018172;28;20504;-78
2023/01/05 08:10:45;;;;;;;6.45;5.25;;;;;;;25.27;38.74;95372.00;5018937;28;20374;-77
2023/01/05 08:15:55;;;;;;;6.82;5.68;;;;;;;25.40;38.84;95397.44;5020442;28;20091;-78
2023/01/05 08:18:21;;;;;;;6.85;5.60;;;;;;;25.18;38.62;95359.41;5022419;28;20490;-80
2023/01/05 08:20:57;;;;;;;6.80;5.20;;;;;;;25.35;38.66;95400.97;5030495;28;20775;-80
2023/01/05 08:23:23;;;;;;;6.82;5.35;;;;;;;25.27;39.06;95383.66;5020705;28;20049;-81
2023/01/05 08:25:49;;;;;;;6.68;5.60;;;;;;;25.20;38.58;95384.25;5005713;28;21313;-80
2023/01/05 08:28:14;;;;;;;6.78;5.43;;;;;;;25.22;38.91;95391.94;5027178;28;20429;-80
2023/01/05 08:30:40;;;;;;;6.80;5.50;;;;;;;25.22;39.35;95409.06;5019571;28;20038;-81
2023/01/05 08:33:05;;;;;;;6.20;5.00;;;;;;;24.80;38.92;95339.88;5024428;28;20072;-79
2023/01/05 08:35:31;;;;;;;7.22;5.28;;;;;;;25.15;38.82;95393.22;5035923;28;20456;-77
2023/01/05 08:37:56;;;;;;;7.38;5.65;;;;;;;25.13;39.12;95390.25;5018023;28;20504;-81
2023/01/05 08:40:22;;;;;;;6.07;5.10;;;;;;;25.13;39.13;95395.72;5041692;28;20025;-80
2023/01/05 08:42:47;;;;;;;8.25;5.53;;;;;;;25.07;39.07;95391.59;5029304;28;20540;-80
2023/01/05 08:45:16;;;;;;;7.38;5.50;;;;;;;25.08;39.01;95393.03;5029049;28;20037;-79
2023/01/05 08:47:41;;;;;;;6.07;5.03;;;;;;;24.77;39.09;95335.44;5025671;28;20113;-79
2023/01/05 08:50:08;;;;;;;7.82;5.53;;;;;;;25.07;38.99;95380.66;5012120;28;20258;-78
2023/01/05 08:52:34;;;;;;;7.53;5.90;;;;;;;25.13;39.11;95382.06;5033317;28;20033;-78
2023/01/05 08:54:59;;;;;;;7.03;5.40;;;;;;;25.02;39.12;95367.75;5024203;28;20135;-78
2023/01/05 08:57:25;;;;;;;6.63;5.38;;;;;;;25.06;39.20;95374.41;5029209;28;20054;-79
2023/01/05 08:59:50;;;;;;;6.30;5.40;;;;;;;24.93;39.35;95366.09;5024567;28;20433;-79
2023/01/05 09:02:16;;;;;;;7.57;5.60;;;;;;;25.00;39.21;95371.00;5012047;28;20504;-80
2023/01/05 09:04:41;;;;;;;7.40;5.63;;;;;;;25.01;39.38;95366.28;5027473;28;20029;-81
2023/01/05 09:07:07;;;;;;;6.80;5.25;;;;;;;24.87;39.13;95335.34;5037671;28;20022;-80
2023/01/05 09:09:32;;;;;;;6.47;5.38;;;;;;;24.84;39.09;95309.03;5021324;28;20038;-79
2023/01/05 09:11:57;;;;;;;7.57;5.47;;;;;;;24.92;39.22;95323.63;5030318;28;20550;-79
2023/01/05 09:14:23;;;;;;;6.75;5.05;;;;;;;24.96;39.20;95332.28;5040759;28;20037;-80
2023/01/05 09:16:48;;;;;;;7.63;5.43;;;;;;;24.74;39.13;95298.22;5022340;28;20064;-79
2023/01/05 09:19:14;;;;;;;6.68;5.38;;;;;;;24.96;39.20;95326.81;5024935;28;20038;-78
2023/01/05 09:21:39;;;;;;;7.97;5.78;;;;;;;24.95;39.37;95308.94;5033237;28;20358;-78
2023/01/05 09:24:06;;;;;;;7.53;5.28;;;;;;;24.89;39.09;95289.13;5020605;28;20049;-78
2023/01/05 09:26:31;;;;;;;7.22;5.47;;;;;;;24.97;39.15;95292.75;5042503;28;20563;-77
2023/01/05 09:28:57;;;;;;;6.65;5.55;;;;;;;24.98;39.13;95291.50;5026156;28;20084;-77
2023/01/05 09:31:22;;;;;;;6.80;5.45;;;;;;;24.92;39.17;95277.16;5026044;28;20033;-78
2023/01/05 09:33:48;;;;;;;6.28;5.35;;;;;;;24.83;39.18;95269.31;5023135;28;20030;-79
2023/01/05 09:36:15;;;;;;;7.85;5.35;;;;;;;24.86;39.41;95284.69;5023787;28;20038;-80
2023/01/05 09:38:40;;;;;;;7.18;5.63;;;;;;;24.83;39.20;95280.25;5025888;28;20562;-79
2023/01/05 09:41:07;;;;;;;6.35;5.25;;;;;;;24.85;39.09;95288.66;5028320;28;20042;-81
2023/01/05 09:43:36;;;;;;;6.65;5.40;;;;;;;24.66;39.30;95237.94;5038319;28;20034;-78
2023/01/05 09:46:03;;;;;;;6.60;5.10;;;;;;;24.73;39.64;95236.66;4998493;28;20105;-79
2023/01/05 09:48:29;;;;;;;7.20;5.88;;;;;;;24.87;39.77;95253.38;5044543;28;20041;-79
2023/01/05 09:50:54;;;;;;;6.95;5.50;;;;;;;24.87;40.26;95247.16;5020990;28;20076;-77
2023/01/05 09:53:25;;;;;;;6.95;5.65;;;;;;;24.75;39.69;95223.22;5020298;28;20079;-74
2023/01/05 09:55:50;;;;;;;6.53;5.05;;;;;;;24.83;39.83;95236.53;5037210;28;20085;-74
2023/01/05 09:58:19;;;;;;;5.95;5.05;;;;;;;24.79;39.96;95246.25;5036006;28;20037;-74
2023/01/05 10:00:54;;;;;;;7.38;5.43;;;;;;;24.82;40.24;95235.03;5029202;28;20045;-74
2023/01/05 10:03:20;;;;;;;6.22;5.13;;;;;;;24.71;40.31;95217.28;5026983;28;20087;-77
2023/01/05 10:05:45;;;;;;;8.02;6.20;;;;;;;24.61;40.44;95224.38;5007548;28;20042;-80
2023/01/05 10:08:24;;;;;;;7.47;5.88;;;;;;;24.72;40.54;95224.25;5004300;28;20053;-76
2023/01/05 10:14:01;;;;;;;7.40;5.47;;;;;;;24.85;40.28;95227.81;5020263;28;20106;-73
2023/01/05 10:16:27;;;;;;;6.57;5.32;;;;;;;24.80;40.16;95219.69;5006600;28;20018;-77
2023/01/05 10:18:53;;;;;;;7.95;5.45;;;;;;;24.97;40.36;95232.63;5004841;28;20042;-74
2023/01/05 10:21:42;;;;;;;6.93;5.70;;;;;;;24.98;40.37;95215.00;5022369;28;20111;-75
2023/01/05 10:24:28;;;;;;;7.10;5.55;;;;;;;24.91;40.49;95210.09;5041095;28;20095;-73
2023/01/05 10:27:14;;;;;;;7.25;5.45;;;;;;;24.85;40.41;95216.91;5025970;28;20045;-74
2023/01/05 10:29:47;;;;;;;7.88;5.70;;;;;;;24.91;40.21;95210.09;5024982;28;20045;-74
2023/01/05 10:32:23;;;;;;;6.68;5.68;;;;;;;24.89;40.45;95201.69;5014522;28;20040;-75
2023/01/05 10:34:54;;;;;;;7.50;5.32;;;;;;;24.96;39.95;95195.66;5024929;28;20021;-74
2023/01/05 10:37:48;;;;;;;7.03;5.40;;;;;;;25.04;40.03;95193.84;5014031;28;20040;-75
2023/01/05 10:40:27;;;;;;;7.28;5.65;;;;;;;25.11;39.49;95196.00;5012227;28;20053;-74
2023/01/05 10:43:07;;;;;;;8.33;5.87;;;;;;;25.15;39.49;95185.50;5007784;28;20033;-74
2023/01/05 10:45:32;;;;;;;7.30;5.22;;;;;;;25.25;38.81;95183.88;5021189;28;20093;-76
2023/01/05 10:47:58;;;;;;;6.65;4.97;;;;;;;25.12;39.24;95148.25;5008745;28;20038;-75
2023/01/05 10:50:37;;;;;;;18.88;6.43;;;;;;;25.46;39.59;95168.44;5005479;28;20041;-75
2023/01/05 10:53:13;;;;;;;10.63;5.40;;;;;;;25.32;39.11;95134.09;5030950;28;20380;-74
2023/01/05 10:56:16;;;;;;;11.23;5.70;;;;;;;25.44;39.31;95162.72;5024379;28;20128;-74
2023/01/05 10:58:43;;;;;;;11.15;5.45;;;;;;;25.52;39.26;95147.94;5015489;28;20036;-73
2023/01/05 11:01:24;;;;;;;13.40;6.00;;;;;;;25.51;39.44;95151.19;5028342;28;20116;-74
2023/01/05 11:04:03;;;;;;;10.15;5.63;;;;;;;25.38;39.63;95121.06;5023273;28;20029;-74
2023/01/05 11:06:31;;;;;;;9.90;6.00;;;;;;;25.60;39.29;95134.41;5030181;28;20053;-74
2023/01/05 11:09:21;;;;;;;9.70;5.85;;;;;;;25.73;39.49;95139.97;5023130;28;20048;-73
2023/01/05 11:11:57;;;;;;;12.05;6.10;;;;;;;25.78;39.49;95139.84;5011236;28;20033;-74
2023/01/05 11:14:22;;;;;;;10.85;5.85;;;;;;;25.82;39.51;95132.81;5021144;28;20041;-74
2023/01/05 11:16:52;;;;;;;9.63;5.72;;;;;;;25.43;39.73;95095.66;5008764;28;20444;-73
2023/01/05 11:19:19;;;;;;;;;;;;;;;25.53;40.26;95132.25;5014102;28;20052;-73
2023/01/05 11:21:45;;;;;;;7.68;5.53;;;;;;;25.21;40.23;95085.03;5033312;28;19921;-73
2023/01/05 11:24:22;;;;;;;8.93;5.30;;;;;;;25.38;40.36;95121.06;5024243;28;20043;-74
2023/01/05 11:26:52;;;;;;;9.45;6.00;;;;;;;25.32;40.51;95112.94;5015609;28;20080;-74
2023/01/05 11:29:18;;;;;;;;;;;;;;;25.34;40.79;95126.09;5009798;28;20070;-74
2023/01/05 11:31:56;;;;;;;8.25;5.28;;;;;;;25.23;40.34;95109.88;5026066;28;19955;-74
2023/01/05 11:34:47;;;;;;;9.60;5.53;;;;;;;25.72;39.76;95111.13;5022623;28;20099;-73
2023/01/05 11:37:27;;;;;;;10.43;6.18;;;;;;;26.03;39.34;95103.59;5025014;28;20155;-74
2023/01/05 11:39:57;;;;;;;8.00;5.80;;;;;;;26.16;39.00;95098.16;5005242;28;20034;-76
2023/01/05 11:42:22;;;;;;;;;;;;;;;26.31;38.91;95106.59;5021866;28;20076;-73
2023/01/05 11:44:51;;;;;;;8.70;5.77;;;;;;;26.00;39.23;95110.13;5016605;28;19945;-76
2023/01/05 11:47:23;;;;;;;7.47;5.60;;;;;;;25.57;40.03;95094.41;5024235;28;20076;-74
2023/01/05 11:49:49;;;;;;;9.13;5.55;;;;;;;25.63;40.27;95111.47;5024132;28;20500;-73
2023/01/05 11:52:49;;;;;;;9.48;5.88;;;;;;;25.92;39.62;95100.34;5019339;28;20032;-73
2023/01/05 11:55:23;;;;;;;7.53;5.65;;;;;;;26.22;39.13;95098.78;5001026;28;20050;-74
2023/01/05 11:57:49;;;;;;;8.02;5.80;;;;;;;26.16;39.35;95087.19;5011429;28;20046;-73
2023/01/05 12:00:25;;;;;;;7.43;5.50;;;;;;;26.30;39.05;95094.16;5006170;28;20042;-76
2023/01/05 12:03:19;;;;;;;7.30;5.60;;;;;;;26.19;39.22;95088.13;5017627;28;20071;-77
2023/01/05 12:05:49;;;;;;;7.65;5.38;;;;;;;26.10;39.16;95092.03;5025689;28;20041;-78
2023/01/05 12:08:17;;;;;;;8.65;5.45;;;;;;;25.88;39.53;95086.22;5026690;28;20055;-78
2023/01/05 12:10:59;;;;;;;8.02;5.70;;;;;;;25.79;39.11;95088.63;5026667;28;20488;-78
2023/01/05 12:14:14;;;;;;;8.65;6.35;;;;;;;25.61;39.89;95070.25;5029815;28;20681;-76
2023/01/05 12:16:52;;;;;;;9.32;6.05;;;;;;;25.67;39.98;95076.41;4972493;28;20108;-78